Time;durP1;ratioP1;P1;durP2;ratioP2;P2;SDS_P1;SDS_P2;PMS_P1;PMS_P2;Temp;Humidity;BMP_temperature;BMP_pressure;BME280_temperature;BME280_humidity;BME280_pressure;Samples;Min_cycle;Max_cycle;Signal;HPM_P1;HPM_P2
2023/06/11 00:01:55;;;;;;;;;;;20.20;99.90;;;;;;5096265;28;19928;-83
2023/06/11 00:04:25;;;;;;;;;;;20.00;99.90;;;;;;5095260;28;19931;-82
2023/06/11 00:06:53;;;;;;;;;;;19.90;99.90;;;;;;5097025;28;19928;-84
2023/06/11 00:09:19;;;;;;;;;;;19.90;99.90;;;;;;5094718;28;20045;-84
2023/06/11 00:11:44;;;;;;;;;;;19.90;99.90;;;;;;5099478;28;20022;-82
2023/06/11 00:14:10;;;;;;;;;;;19.80;99.90;;;;;;5080812;28;19928;-83
2023/06/11 00:16:36;;;;;;;;;;;19.70;99.90;;;;;;5099965;28;20930;-82
2023/06/11 00:19:03;;;;;;;;;;;19.60;99.90;;;;;;5076933;28;20411;-84
2023/06/11 00:21:29;;;;;;;;;;;19.70;99.90;;;;;;5092554;28;19935;-83
2023/06/11 00:23:55;;;;;;;;;;;19.80;99.90;;;;;;5094960;28;19924;-82
2023/06/11 00:26:22;;;;;;;;;;;20.00;99.90;;;;;;5097727;28;20504;-82
2023/06/11 00:28:47;;;;;;;;;;;20.00;99.90;;;;;;5079278;28;19927;-83
2023/06/11 00:31:13;;;;;;;;;;;20.00;99.90;;;;;;5095585;28;20308;-83
2023/06/11 00:33:39;;;;;;;;;;;19.90;99.90;;;;;;5088592;28;20447;-83
2023/06/11 00:36:04;;;;;;;;;;;19.90;99.90;;;;;;5093824;28;20415;-82
2023/06/11 00:38:30;;;;;;;;;;;19.90;99.90;;;;;;5095303;28;19928;-82
2023/06/11 00:40:56;;;;;;;;;;;20.20;99.90;;;;;;5095918;28;20024;-82
2023/06/11 00:43:23;;;;;;;;;;;20.20;99.90;;;;;;5094219;28;19949;-83
2023/06/11 00:45:51;;;;;;;;;;;20.10;99.90;;;;;;5093924;28;20336;-83
2023/06/11 00:48:19;;;;;;;;;;;20.00;99.90;;;;;;5091632;28;20024;-82
2023/06/11 00:50:47;;;;;;;;;;;20.00;99.90;;;;;;5094170;28;19928;-82
2023/06/11 00:53:13;;;;;;;;;;;20.10;99.90;;;;;;5099469;28;20503;-81
2023/06/11 00:55:39;;;;;;;;;;;20.00;99.90;;;;;;5096300;28;20058;-82
2023/06/11 00:58:13;;;;;;;;;;;19.90;99.90;;;;;;5097795;28;19943;-81
2023/06/11 01:00:50;;;;;;;;;;;20.00;99.90;;;;;;5094123;28;19932;-82
2023/06/11 01:03:18;;;;;;;;;;;19.70;99.90;;;;;;5099326;28;19977;-82
2023/06/11 01:06:02;;;;;;;;;;;19.60;99.90;;;;;;5094259;28;19924;-83
2023/06/11 01:08:31;;;;;;;;;;;19.80;99.90;;;;;;5091359;28;20018;-82
2023/06/11 01:10:59;;;;;;;;;;;19.60;99.90;;;;;;5078166;28;20019;-82
2023/06/11 01:13:25;;;;;;;;;;;19.50;99.90;;;;;;5069108;28;20015;-82
2023/06/11 01:15:53;;;;;;;;;;;19.30;99.90;;;;;;5094346;28;19989;-82
2023/06/11 01:18:23;;;;;;;;;;;19.50;99.90;;;;;;5101111;28;19942;-82
2023/06/11 01:20:49;;;;;;;;;;;19.30;99.90;;;;;;5093342;28;20395;-83
2023/06/11 01:23:15;;;;;;;;;;;19.40;99.90;;;;;;5095267;28;19924;-82
2023/06/11 01:25:56;;;;;;;;;;;19.30;99.90;;;;;;5096764;28;19932;-82
2023/06/11 01:28:26;;;;;;;;;;;19.30;99.90;;;;;;5098515;28;19928;-82
2023/06/11 01:30:55;;;;;;;;;;;19.20;99.90;;;;;;5095045;28;19949;-83
2023/06/11 01:33:24;;;;;;;;;;;19.10;99.90;;;;;;5074502;28;19928;-82
2023/06/11 01:35:52;;;;;;;;;;;19.20;99.90;;;;;;5094355;28;19925;-82
2023/06/11 01:38:21;;;;;;;;;;;19.20;99.90;;;;;;5102766;28;19928;-82
2023/06/11 01:40:47;;;;;;;;;;;19.10;99.90;;;;;;5096427;28;19967;-81
2023/06/11 01:43:12;;;;;;;;;;;18.90;99.90;;;;;;5099809;28;19999;-82
2023/06/11 01:45:38;;;;;;;;;;;19.10;99.90;;;;;;5096556;28;20656;-82
2023/06/11 01:48:04;;;;;;;;;;;19.10;99.90;;;;;;5094995;28;20026;-82
2023/06/11 01:50:30;;;;;;;;;;;18.90;99.90;;;;;;5094774;28;19994;-83
2023/06/11 01:52:56;;;;;;;;;;;18.90;99.90;;;;;;5085495;28;20015;-83
2023/06/11 01:55:22;;;;;;;;;;;18.80;99.90;;;;;;5094908;28;19931;-82
2023/06/11 01:57:48;;;;;;;;;;;18.80;99.90;;;;;;5092151;28;20453;-82
2023/06/11 02:00:14;;;;;;;;;;;18.80;99.90;;;;;;5098629;28;19934;-83
2023/06/11 02:02:41;;;;;;;;;;;18.70;99.90;;;;;;5092220;28;20344;-83
2023/06/11 02:05:07;;;;;;;;;;;18.70;99.90;;;;;;5097132;28;19974;-82
2023/06/11 02:07:32;;;;;;;;;;;18.70;99.90;;;;;;5095799;28;20380;-82
2023/06/11 02:09:58;;;;;;;;;;;18.60;99.90;;;;;;5093157;28;19928;-82
2023/06/11 02:12:23;;;;;;;;;;;18.50;99.90;;;;;;5097229;28;19931;-82
2023/06/11 02:14:49;;;;;;;;;;;18.40;99.90;;;;;;5098651;28;20408;-82
2023/06/11 02:17:15;;;;;;;;;;;18.40;99.90;;;;;;5092940;28;19925;-82
2023/06/11 02:19:41;;;;;;;;;;;18.40;99.90;;;;;;5092847;28;19977;-82
2023/06/11 02:22:06;;;;;;;;;;;18.40;99.90;;;;;;5099562;28;19970;-82
2023/06/11 02:24:32;;;;;;;;;;;18.40;99.90;;;;;;5095038;28;19931;-83
2023/06/11 02:26:57;;;;;;;;;;;18.30;99.90;;;;;;5096961;28;20507;-82
2023/06/11 02:29:23;;;;;;;;;;;18.30;99.90;;;;;;5093796;28;19977;-82
2023/06/11 02:31:48;;;;;;;;;;;18.40;99.90;;;;;;5094795;28;19932;-83
2023/06/11 02:34:14;;;;;;;;;;;18.30;99.90;;;;;;5098783;28;19950;-82
2023/06/11 02:36:40;;;;;;;;;;;18.30;99.90;;;;;;5094797;28;19973;-82
2023/06/11 02:39:06;;;;;;;;;;;18.30;99.90;;;;;;5100594;28;19987;-83
2023/06/11 02:41:31;;;;;;;;;;;18.30;99.90;;;;;;5098023;28;20034;-84
2023/06/11 02:43:57;;;;;;;;;;;18.10;99.90;;;;;;5100085;28;19999;-83
2023/06/11 02:46:22;;;;;;;;;;;18.10;99.90;;;;;;5098418;28;19924;-82
2023/06/11 02:48:48;;;;;;;;;;;18.00;99.90;;;;;;5096531;28;20020;-82
2023/06/11 02:51:14;;;;;;;;;;;17.90;99.90;;;;;;5093240;28;20027;-83
2023/06/11 02:53:39;;;;;;;;;;;17.90;99.90;;;;;;5097127;28;19927;-83
2023/06/11 02:56:05;;;;;;;;;;;18.00;99.90;;;;;;5100228;28;19927;-83
2023/06/11 02:58:31;;;;;;;;;;;17.90;99.90;;;;;;5094644;28;20426;-83
2023/06/11 03:00:56;;;;;;;;;;;17.70;99.90;;;;;;5098167;28;19978;-82
2023/06/11 03:03:22;;;;;;;;;;;17.70;99.90;;;;;;5099057;28;19930;-83
2023/06/11 03:05:47;;;;;;;;;;;17.60;99.90;;;;;;5076425;28;20360;-82
2023/06/11 03:08:13;;;;;;;;;;;17.60;99.90;;;;;;5098593;28;19935;-82
2023/06/11 03:10:38;;;;;;;;;;;17.60;99.90;;;;;;5093511;28;19928;-82
2023/06/11 03:13:04;;;;;;;;;;;17.50;99.90;;;;;;5102224;28;19986;-82
2023/06/11 03:15:30;;;;;;;;;;;17.40;99.90;;;;;;5097927;28;20310;-81
2023/06/11 03:17:56;;;;;;;;;;;17.50;99.90;;;;;;5094181;28;19924;-82
2023/06/11 03:20:22;;;;;;;;;;;17.40;99.90;;;;;;5094363;28;19924;-83
2023/06/11 03:22:47;;;;;;;;;;;17.30;99.90;;;;;;5086808;28;19932;-82
2023/06/11 03:25:13;;;;;;;;;;;17.50;99.90;;;;;;5096989;28;20396;-83
2023/06/11 03:27:39;;;;;;;;;;;17.40;99.90;;;;;;5097965;28;20373;-82
2023/06/11 03:30:06;;;;;;;;;;;17.40;99.90;;;;;;5098529;28;19972;-81
2023/06/11 03:32:32;;;;;;;;;;;17.40;99.90;;;;;;5099230;28;19928;-82
2023/06/11 03:34:57;;;;;;;;;;;17.40;99.90;;;;;;5097724;28;20349;-82
2023/06/11 03:37:23;;;;;;;;;;;17.40;99.90;;;;;;5094514;28;19928;-82
2023/06/11 03:39:48;;;;;;;;;;;17.30;99.90;;;;;;5097074;28;20472;-82
2023/06/11 03:42:14;;;;;;;;;;;17.20;99.90;;;;;;5096487;28;19928;-82
2023/06/11 03:44:40;;;;;;;;;;;17.30;99.90;;;;;;5099835;28;19942;-82
2023/06/11 03:47:05;;;;;;;;;;;17.30;99.90;;;;;;5093990;28;19928;-82
2023/06/11 03:49:31;;;;;;;;;;;17.40;99.90;;;;;;5098233;28;20014;-83
2023/06/11 03:51:56;;;;;;;;;;;17.40;99.90;;;;;;5098953;28;19947;-82
2023/06/11 03:54:22;;;;;;;;;;;17.30;99.90;;;;;;5100179;28;20434;-82
2023/06/11 03:56:47;;;;;;;;;;;17.40;99.90;;;;;;5095179;28;19932;-82
2023/06/11 03:59:13;;;;;;;;;;;17.30;99.90;;;;;;5100397;28;19996;-82
2023/06/11 04:01:40;;;;;;;;;;;17.30;99.90;;;;;;5094210;28;20373;-82
2023/06/11 04:04:05;;;;;;;;;;;17.30;99.90;;;;;;5097510;28;19934;-82
2023/06/11 04:06:38;;;;;;;;;;;17.30;99.90;;;;;;5083164;28;20019;-82
2023/06/11 04:09:04;;;;;;;;;;;17.30;99.90;;;;;;5099076;28;19924;-82
2023/06/11 04:11:29;;;;;;;;;;;17.30;99.90;;;;;;5096670;28;19955;-82
2023/06/11 04:13:55;;;;;;;;;;;17.30;99.90;;;;;;5094118;28;19928;-81
2023/06/11 04:16:20;;;;;;;;;;;17.40;99.90;;;;;;5093870;28;19928;-81
2023/06/11 04:18:47;;;;;;;;;;;17.50;99.90;;;;;;5099088;28;19935;-83
2023/06/11 04:21:13;;;;;;;;;;;17.50;99.90;;;;;;5098330;28;19927;-83
2023/06/11 04:23:39;;;;;;;;;;;17.50;99.90;;;;;;5097667;28;19934;-83
2023/06/11 04:26:07;;;;;;;;;;;17.60;99.90;;;;;;5099639;28;20511;-82
2023/06/11 04:28:35;;;;;;;;;;;17.70;99.90;;;;;;5104062;28;20407;-83
2023/06/11 04:31:01;;;;;;;;;;;17.70;99.90;;;;;;5099618;28;19962;-82
2023/06/11 04:33:32;;;;;;;;;;;17.70;99.90;;;;;;5099568;27;19928;-82
2023/06/11 04:36:05;;;;;;;;;;;17.90;99.90;;;;;;5080061;28;19928;-82
2023/06/11 04:38:30;;;;;;;;;;;18.00;99.90;;;;;;5101440;28;19934;-83
2023/06/11 04:40:56;;;;;;;;;;;18.10;99.90;;;;;;5096391;28;19936;-82
2023/06/11 04:43:23;;;;;;;;;;;19.50;99.90;;;;;;5100512;28;19977;-82
2023/06/11 04:45:59;;;;;;;;;;;20.10;99.90;;;;;;5094959;28;20468;-83
2023/06/11 04:48:27;;;;;;;;;;;21.00;99.90;;;;;;5098060;28;19953;-81
2023/06/11 04:50:53;;;;;;;;;;;21.10;99.90;;;;;;5101506;28;19936;-82
2023/06/11 04:53:23;;;;;;;;;;;22.10;99.90;;;;;;5103492;28;19977;-82
2023/06/11 04:55:49;;;;;;;;;;;22.40;99.90;;;;;;5097764;28;19928;-83
2023/06/11 04:58:15;;;;;;;;;;;22.40;99.90;;;;;;5101145;28;20018;-83
2023/06/11 05:00:42;;;;;;;;;;;22.70;99.90;;;;;;5096936;28;20721;-82
2023/06/11 05:03:07;;;;;;;;;;;22.80;99.90;;;;;;5094699;28;20445;-83
2023/06/11 05:05:33;;;;;;;;;;;23.50;99.90;;;;;;5097798;28;19924;-81
2023/06/11 05:07:58;;;;;;;;;;;22.90;99.90;;;;;;5092148;28;20397;-83
2023/06/11 05:10:24;;;;;;;;;;;24.80;99.90;;;;;;5100507;28;19977;-81
2023/06/11 05:12:50;;;;;;;;;;;23.20;99.90;;;;;;5100862;28;19931;-83
2023/06/11 05:15:16;;;;;;;;;;;23.40;99.90;;;;;;5101337;28;19924;-82
2023/06/11 05:17:41;;;;;;;;;;;24.20;99.90;;;;;;5097302;28;19959;-82
2023/06/11 05:20:07;;;;;;;;;;;23.80;99.90;;;;;;5096786;28;19962;-81
2023/06/11 05:22:33;;;;;;;;;;;23.60;99.90;;;;;;5098100;28;19927;-83
2023/06/11 05:24:58;;;;;;;;;;;24.50;99.90;;;;;;5091077;28;20672;-84
2023/06/11 05:27:28;;;;;;;;;;;24.90;99.90;;;;;;5100476;28;19967;-83
2023/06/11 05:29:55;;;;;;;;;;;25.00;99.90;;;;;;5100760;28;21162;-82
2023/06/11 05:32:21;;;;;;;;;;;25.80;99.90;;;;;;5102359;28;19931;-82
2023/06/11 05:34:49;;;;;;;;;;;25.10;99.90;;;;;;5102485;28;19924;-84
2023/06/11 05:37:15;;;;;;;;;;;25.30;99.90;;;;;;5100305;28;19927;-84
2023/06/11 05:39:41;;;;;;;;;;;25.30;99.90;;;;;;5084395;28;20032;-83
2023/06/11 05:42:07;;;;;;;;;;;25.10;99.90;;;;;;5103828;28;20301;-84
2023/06/11 05:44:32;;;;;;;;;;;27.10;99.90;;;;;;5097963;28;20380;-84
2023/06/11 05:46:58;;;;;;;;;;;25.60;99.90;;;;;;5100461;28;19932;-82
2023/06/11 05:49:23;;;;;;;;;;;23.10;99.90;;;;;;5102641;28;20396;-84
2023/06/11 05:51:49;;;;;;;;;;;23.00;99.90;;;;;;5099999;28;19932;-82
2023/06/11 05:54:15;;;;;;;;;;;23.20;99.90;;;;;;5100133;28;19934;-83
2023/06/11 05:56:40;;;;;;;;;;;23.00;99.90;;;;;;5097962;28;20002;-82
2023/06/11 05:59:06;;;;;;;;;;;23.20;99.90;;;;;;5099367;28;20003;-83
2023/06/11 06:01:33;;;;;;;;;;;22.60;99.90;;;;;;5099836;28;19929;-83
2023/06/11 06:03:58;;;;;;;;;;;22.90;99.90;;;;;;5095644;28;20501;-84
2023/06/11 06:06:25;;;;;;;;;;;22.90;99.90;;;;;;5099687;28;19932;-80
2023/06/11 06:08:51;;;;;;;;;;;22.70;99.90;;;;;;5099496;28;20014;-83
2023/06/11 06:11:16;;;;;;;;;;;23.40;99.90;;;;;;5100517;28;20653;-83
2023/06/11 06:13:42;;;;;;;;;;;23.10;99.90;;;;;;5100349;28;19934;-82
2023/06/11 06:16:08;;;;;;;;;;;23.60;99.90;;;;;;5092754;28;20819;-85
2023/06/11 06:18:34;;;;;;;;;;;23.30;99.90;;;;;;5098958;28;19931;-81
2023/06/11 06:20:59;;;;;;;;;;;23.50;99.90;;;;;;5094465;28;19928;-83
2023/06/11 06:23:25;;;;;;;;;;;24.10;99.90;;;;;;5096887;28;19927;-83
2023/06/11 06:25:51;;;;;;;;;;;24.00;99.90;;;;;;5097311;27;20010;-84
2023/06/11 06:28:17;;;;;;;;;;;23.10;99.90;;;;;;5102109;28;19931;-81
2023/06/11 06:30:43;;;;;;;;;;;23.60;99.90;;;;;;5101350;28;19923;-82
2023/06/11 06:33:08;;;;;;;;;;;23.30;99.90;;;;;;5098417;28;20037;-80
2023/06/11 06:35:34;;;;;;;;;;;23.60;99.90;;;;;;5101387;28;20016;-81
2023/06/11 06:38:00;;;;;;;;;;;24.10;99.90;;;;;;5099097;28;19970;-81
2023/06/11 06:40:28;;;;;;;;;;;23.50;99.90;;;;;;5099583;28;19931;-82
2023/06/11 06:42:54;;;;;;;;;;;24.00;99.90;;;;;;5100183;28;20269;-82
2023/06/11 06:45:19;;;;;;;;;;;23.70;99.90;;;;;;5096727;28;20410;-81
2023/06/11 06:47:45;;;;;;;;;;;23.70;99.90;;;;;;5098866;28;19967;-83
2023/06/11 06:50:14;;;;;;;;;;;24.00;99.90;;;;;;5075091;28;20479;-83
2023/06/11 06:52:39;;;;;;;;;;;24.80;99.90;;;;;;5098783;28;19969;-83
2023/06/11 06:55:05;;;;;;;;;;;25.40;99.90;;;;;;5094270;28;19928;-83
2023/06/11 06:57:31;;;;;;;;;;;25.20;99.90;;;;;;5098505;28;19935;-82
2023/06/11 06:59:56;;;;;;;;;;;25.50;99.90;;;;;;5094643;28;19932;-84
2023/06/11 07:02:22;;;;;;;;;;;25.20;99.90;;;;;;5078059;28;20507;-83
2023/06/11 07:04:48;;;;;;;;;;;25.90;99.90;;;;;;5092370;28;20407;-82
2023/06/11 07:07:14;;;;;;;;;;;24.80;99.90;;;;;;5094893;28;19932;-83
2023/06/11 07:09:39;;;;;;;;;;;24.60;99.90;;;;;;5095791;28;19934;-84
2023/06/11 07:12:06;;;;;;;;;;;25.50;99.90;;;;;;5096958;28;19928;-83
2023/06/11 07:14:32;;;;;;;;;;;25.30;99.90;;;;;;5096262;28;19924;-83
2023/06/11 07:16:57;;;;;;;;;;;25.80;99.90;;;;;;5097320;28;19927;-85
2023/06/11 07:19:23;;;;;;;;;;;25.50;99.90;;;;;;5086366;28;19950;-83
2023/06/11 07:21:48;;;;;;;;;;;26.00;99.90;;;;;;5067918;28;19985;-83
2023/06/11 07:24:14;;;;;;;;;;;26.10;99.90;;;;;;5099926;28;19927;-81
2023/06/11 07:26:40;;;;;;;;;;;26.80;99.90;;;;;;5100101;28;20396;-83
2023/06/11 07:29:06;;;;;;;;;;;26.80;99.90;;;;;;5095791;28;19928;-83
2023/06/11 07:31:31;;;;;;;;;;;26.40;99.90;;;;;;5095833;28;20034;-85
2023/06/11 07:33:57;;;;;;;;;;;26.00;99.90;;;;;;5092079;28;19952;-84
2023/06/11 07:36:23;;;;;;;;;;;26.50;99.90;;;;;;5101060;28;20586;-84
2023/06/11 07:38:48;;;;;;;;;;;26.40;99.90;;;;;;5094363;28;20525;-81
2023/06/11 07:41:14;;;;;;;;;;;26.20;99.90;;;;;;5097051;28;19928;-83
2023/06/11 07:43:39;;;;;;;;;;;26.70;99.90;;;;;;5101120;28;20589;-83
2023/06/11 07:46:05;;;;;;;;;;;26.80;99.90;;;;;;5099509;28;19929;-84
2023/06/11 07:48:30;;;;;;;;;;;26.80;99.90;;;;;;5086851;28;19990;-80
2023/06/11 07:50:56;;;;;;;;;;;26.40;99.90;;;;;;5095559;28;19932;-82
2023/06/11 07:53:22;;;;;;;;;;;26.30;99.90;;;;;;5087689;28;19959;-82
2023/06/11 07:55:50;;;;;;;;;;;26.70;99.90;;;;;;5090251;28;19934;-85
2023/06/11 07:58:16;;;;;;;;;;;27.10;99.90;;;;;;5098219;28;19971;-85
2023/06/11 08:00:41;;;;;;;;;;;27.50;99.90;;;;;;5101960;28;19978;-83
2023/06/11 08:03:09;;;;;;;;;;;27.30;99.90;;;;;;5073093;28;19935;-84
2023/06/11 08:05:34;;;;;;;;;;;27.70;99.90;;;;;;5087040;28;19935;-82
2023/06/11 08:08:00;;;;;;;;;;;26.60;99.90;;;;;;5094434;28;19927;-83
2023/06/11 08:10:25;;;;;;;;;;;26.80;99.90;;;;;;5085705;28;19924;-83
2023/06/11 08:12:51;;;;;;;;;;;27.40;99.90;;;;;;5098545;28;19924;-83
2023/06/11 08:15:17;;;;;;;;;;;27.90;99.90;;;;;;5100763;28;19939;-83
2023/06/11 08:17:43;;;;;;;;;;;27.60;99.90;;;;;;5096972;28;19924;-83
2023/06/11 08:20:09;;;;;;;;;;;27.10;99.90;;;;;;5097106;28;19932;-84
2023/06/11 08:22:34;;;;;;;;;;;27.30;99.90;;;;;;5097082;28;19932;-83
2023/06/11 08:25:00;;;;;;;;;;;27.60;99.90;;;;;;5103182;28;20040;-86
2023/06/11 08:27:26;;;;;;;;;;;28.10;99.90;;;;;;5102390;28;20368;-85
2023/06/11 08:29:51;;;;;;;;;;;27.70;99.90;;;;;;5103200;28;19924;-85
2023/06/11 08:32:17;;;;;;;;;;;27.20;99.90;;;;;;5101797;28;19928;-83
2023/06/11 08:34:42;;;;;;;;;;;27.60;99.90;;;;;;5102545;28;19931;-84
2023/06/11 08:37:08;;;;;;;;;;;27.40;99.90;;;;;;5101047;28;20019;-82
2023/06/11 08:39:33;;;;;;;;;;;27.60;99.90;;;;;;5103644;28;20022;-83
2023/06/11 08:41:59;;;;;;;;;;;27.00;99.90;;;;;;5101810;28;19951;-84
2023/06/11 08:44:25;;;;;;;;;;;27.50;99.90;;;;;;5103467;28;19928;-84
2023/06/11 08:46:51;;;;;;;;;;;28.60;99.90;;;;;;5101581;28;19928;-83
2023/06/11 08:49:23;;;;;;;;;;;29.00;99.90;;;;;;5098728;28;20685;-83
2023/06/11 08:51:49;;;;;;;;;;;28.00;99.50;;;;;;5102185;28;19932;-83
2023/06/11 08:54:16;;;;;;;;;;;28.30;99.90;;;;;;5102463;28;20297;-85
2023/06/11 08:56:42;;;;;;;;;;;28.50;99.90;;;;;;5100130;28;20426;-84
2023/06/11 08:59:08;;;;;;;;;;;28.60;98.90;;;;;;5100661;28;19935;-84
2023/06/11 09:01:33;;;;;;;;;;;28.20;99.90;;;;;;5100482;28;19928;-83
2023/06/11 09:04:00;;;;;;;;;;;28.80;99.10;;;;;;5103307;28;19928;-83
2023/06/11 09:06:27;;;;;;;;;;;29.20;98.00;;;;;;5099887;28;20392;-84
2023/06/11 09:08:59;;;;;;;;;;;28.90;98.20;;;;;;5098418;28;20112;-86
2023/06/11 09:11:37;;;;;;;;;;;29.20;98.10;;;;;;5078767;28;19932;-86
2023/06/11 09:14:03;;;;;;;;;;;29.30;96.90;;;;;;5101786;28;19985;-83
2023/06/11 09:16:36;;;;;;;;;;;29.40;98.20;;;;;;5100971;28;20034;-84
2023/06/11 09:19:02;;;;;;;;;;;29.10;97.70;;;;;;5099433;28;20049;-85
2023/06/11 09:21:36;;;;;;;;;;;28.80;97.60;;;;;;5098640;28;20007;-85
2023/06/11 09:24:07;;;;;;;;;;;29.30;98.60;;;;;;5102606;28;20001;-84
2023/06/11 09:26:32;;;;;;;;;;;29.80;96.70;;;;;;5097454;28;19972;-83
2023/06/11 09:29:03;;;;;;;;;;;30.30;97.70;;;;;;5101941;28;20392;-83
2023/06/11 09:31:30;;;;;;;;;;;30.50;96.50;;;;;;5102060;28;19928;-81
2023/06/11 09:34:00;;;;;;;;;;;29.60;95.60;;;;;;5096832;28;19972;-85
2023/06/11 09:36:26;;;;;;;;;;;30.50;96.80;;;;;;5098806;28;19928;-83
2023/06/11 09:38:51;;;;;;;;;;;30.80;95.70;;;;;;5078075;28;19928;-84
2023/06/11 09:41:17;;;;;;;;;;;29.70;93.40;;;;;;5101247;28;19935;-85
2023/06/11 09:43:43;;;;;;;;;;;29.70;95.10;;;;;;5097545;28;19935;-85
2023/06/11 09:46:09;;;;;;;;;;;29.00;92.70;;;;;;5098271;28;20051;-84
2023/06/11 09:48:35;;;;;;;;;;;29.40;94.50;;;;;;5100568;28;19935;-85
2023/06/11 09:51:02;;;;;;;;;;;29.30;94.20;;;;;;5080968;28;19931;-83
2023/06/11 09:53:28;;;;;;;;;;;29.80;95.30;;;;;;5095643;28;20412;-82
2023/06/11 09:55:54;;;;;;;;;;;30.40;93.40;;;;;;5102886;28;20557;-85
2023/06/11 09:58:22;;;;;;;;;;;29.90;93.20;;;;;;5097778;28;19935;-84
2023/06/11 10:00:52;;;;;;;;;;;29.50;93.90;;;;;;5101022;28;19934;-84
2023/06/11 10:03:18;;;;;;;;;;;30.00;93.60;;;;;;5094853;28;19932;-84
2023/06/11 10:05:44;;;;;;;;;;;29.30;94.60;;;;;;5094502;28;19935;-85
2023/06/11 10:08:26;;;;;;;;;;;29.90;95.50;;;;;;5094502;28;19932;-88
2023/06/11 10:10:56;;;;;;;;;;;30.90;95.30;;;;;;5090037;28;19982;-83
2023/06/11 10:13:32;;;;;;;;;;;30.70;93.50;;;;;;5096620;28;20333;-85
2023/06/11 10:15:58;;;;;;;;;;;31.10;93.20;;;;;;5071978;28;19924;-86
2023/06/11 10:18:25;;;;;;;;;;;30.30;92.70;;;;;;5094110;28;19923;-85
2023/06/11 10:20:58;;;;;;;;;;;30.70;92.60;;;;;;5082327;28;19936;-86
2023/06/11 10:23:34;;;;;;;;;;;31.10;90.40;;;;;;5093696;28;19931;-82
2023/06/11 10:25:59;;;;;;;;;;;30.00;91.70;;;;;;5084129;28;19924;-85
2023/06/11 10:28:48;;;;;;;;;;;30.30;92.10;;;;;;5078883;28;19977;-83
2023/06/11 10:31:44;;;;;;;;;;;30.70;92.00;;;;;;5094914;28;19938;-84
2023/06/11 10:34:12;;;;;;;;;;;30.60;92.10;;;;;;5068191;28;19934;-86
2023/06/11 10:36:40;;;;;;;;;;;31.20;92.60;;;;;;5085540;28;20456;-83
2023/06/11 10:39:10;;;;;;;;;;;30.60;91.70;;;;;;5077772;28;19932;-83
2023/06/11 10:41:39;;;;;;;;;;;30.70;92.30;;;;;;5088957;28;19928;-85
2023/06/11 10:44:05;;;;;;;;;;;31.00;90.40;;;;;;5086759;28;19938;-84
2023/06/11 10:46:31;;;;;;;;;;;31.20;90.70;;;;;;5090173;28;19928;-86
2023/06/11 10:48:56;;;;;;;;;;;29.20;89.00;;;;;;5092878;28;19928;-85
2023/06/11 10:51:22;;;;;;;;;;;29.40;89.40;;;;;;5096361;28;19927;-85
2023/06/11 10:53:58;;;;;;;;;;;30.20;92.40;;;;;;5092462;28;19928;-87
2023/06/11 10:56:25;;;;;;;;;;;31.00;90.70;;;;;;5094513;28;19928;-86
2023/06/11 10:58:52;;;;;;;;;;;31.40;91.50;;;;;;5098722;28;20615;-84
2023/06/11 11:01:18;;;;;;;;;;;30.80;89.40;;;;;;5096055;28;20476;-85
2023/06/11 11:03:43;;;;;;;;;;;30.50;90.20;;;;;;5101278;28;20018;-87
2023/06/11 11:06:09;;;;;;;;;;;30.30;85.40;;;;;;5095751;28;20007;-84
2023/06/11 11:08:35;;;;;;;;;;;30.90;90.00;;;;;;5095594;28;19927;-86
2023/06/11 11:11:00;;;;;;;;;;;31.00;86.60;;;;;;5099027;28;19931;-85
2023/06/11 11:13:26;;;;;;;;;;;30.50;89.10;;;;;;5096556;28;19931;-84
2023/06/11 11:15:52;;;;;;;;;;;29.90;83.40;;;;;;5098208;28;19927;-86
2023/06/11 11:18:17;;;;;;;;;;;30.90;90.10;;;;;;5099092;28;20016;-84
2023/06/11 11:20:44;;;;;;;;;;;31.90;90.20;;;;;;5094329;28;19924;-84
2023/06/11 11:23:10;;;;;;;;;;;30.50;86.90;;;;;;5098277;28;19923;-84
2023/06/11 11:25:36;;;;;;;;;;;30.60;89.70;;;;;;5101810;28;20386;-86
2023/06/11 11:28:02;;;;;;;;;;;31.20;87.60;;;;;;5081760;28;20010;-86
2023/06/11 11:30:28;;;;;;;;;;;31.20;86.40;;;;;;5084291;28;20073;-87
2023/06/11 11:32:57;;;;;;;;;;;29.80;85.90;;;;;;5095275;28;19939;-85
2023/06/11 11:35:25;;;;;;;;;;;30.50;89.20;;;;;;5095931;28;19923;-86
2023/06/11 11:37:51;;;;;;;;;;;31.10;88.60;;;;;;5099970;28;19928;-88
2023/06/11 11:40:23;;;;;;;;;;;31.20;87.90;;;;;;5093577;28;19931;-86
2023/06/11 11:42:49;;;;;;;;;;;31.30;85.90;;;;;;5096052;28;19935;-85
2023/06/11 11:45:15;;;;;;;;;;;31.30;88.80;;;;;;5094240;28;20300;-86
2023/06/11 11:47:46;;;;;;;;;;;30.60;87.40;;;;;;5097560;28;20535;-87
2023/06/11 11:50:27;;;;;;;;;;;30.80;86.80;;;;;;5095422;28;19924;-87
2023/06/11 11:53:03;;;;;;;;;;;31.00;86.20;;;;;;5099471;28;19924;-87
2023/06/11 11:55:32;;;;;;;;;;;30.30;82.40;;;;;;5094660;28;20392;-83
2023/06/11 11:58:09;;;;;;;;;;;30.80;85.10;;;;;;5085489;28;20301;-86
2023/06/11 12:00:46;;;;;;;;;;;31.40;85.80;;;;;;5096159;28;20365;-86
2023/06/11 12:03:12;;;;;;;;;;;30.20;82.70;;;;;;5095606;28;20246;-84
2023/06/11 12:05:38;;;;;;;;;;;29.80;83.80;;;;;;5078022;28;19932;-85
2023/06/11 12:08:04;;;;;;;;;;;29.40;83.70;;;;;;5098769;28;19927;-87
2023/06/11 12:13:26;;;;;;;;;;;30.40;84.60;;;;;;5099838;28;20051;-85
2023/06/11 12:15:58;;;;;;;;;;;31.20;86.40;;;;;;5095406;28;20018;-85
2023/06/11 12:18:24;;;;;;;;;;;31.40;81.60;;;;;;5096816;28;19924;-87
2023/06/11 12:20:50;;;;;;;;;;;31.40;82.10;;;;;;5099446;28;19993;-85
2023/06/11 12:23:15;;;;;;;;;;;31.40;81.10;;;;;;5095794;28;19932;-83
2023/06/11 12:25:42;;;;;;;;;;;31.10;80.70;;;;;;5102054;28;19931;-84
2023/06/11 12:28:07;;;;;;;;;;;31.60;84.00;;;;;;5098921;28;19928;-85
2023/06/11 12:30:33;;;;;;;;;;;30.40;83.50;;;;;;5097444;28;20313;-86
2023/06/11 12:32:59;;;;;;;;;;;30.20;83.00;;;;;;5096884;28;20523;-85
2023/06/11 12:35:27;;;;;;;;;;;30.10;83.20;;;;;;5098645;28;19932;-85
2023/06/11 12:37:52;;;;;;;;;;;30.40;83.20;;;;;;5085370;28;19928;-85
2023/06/11 12:40:18;;;;;;;;;;;30.50;81.40;;;;;;5078704;28;19927;-85
2023/06/11 12:42:43;;;;;;;;;;;30.10;82.30;;;;;;5097941;28;19923;-84
2023/06/11 12:45:09;;;;;;;;;;;30.30;80.30;;;;;;5101112;28;20006;-83
2023/06/11 12:47:39;;;;;;;;;;;30.60;81.30;;;;;;5099340;28;19928;-85
2023/06/11 12:50:05;;;;;;;;;;;30.80;81.20;;;;;;5085802;28;19935;-89
2023/06/11 12:52:30;;;;;;;;;;;31.20;76.70;;;;;;5088511;28;19928;-85
2023/06/11 12:54:56;;;;;;;;;;;31.10;80.20;;;;;;5101735;28;19935;-85
2023/06/11 12:57:22;;;;;;;;;;;31.80;81.30;;;;;;5104720;28;19927;-84
2023/06/11 12:59:47;;;;;;;;;;;32.20;81.70;;;;;;5086335;28;19934;-86
2023/06/11 13:02:14;;;;;;;;;;;31.80;79.60;;;;;;5084434;28;19930;-85
2023/06/11 13:04:42;;;;;;;;;;;31.60;80.70;;;;;;5096606;28;19942;-85
2023/06/11 13:07:08;;;;;;;;;;;32.40;81.50;;;;;;5103316;28;20300;-85
2023/06/11 13:09:34;;;;;;;;;;;32.20;80.90;;;;;;5099598;28;19925;-86
2023/06/11 13:12:00;;;;;;;;;;;31.20;77.50;;;;;;5088476;28;19931;-83
2023/06/11 13:14:25;;;;;;;;;;;31.50;78.90;;;;;;5098661;28;19931;-90
2023/06/11 13:16:51;;;;;;;;;;;31.50;76.90;;;;;;5085342;28;19958;-84
2023/06/11 13:19:17;;;;;;;;;;;31.60;80.50;;;;;;5100023;28;20000;-85
2023/06/11 13:21:43;;;;;;;;;;;31.70;76.80;;;;;;5099854;28;19997;-84
2023/06/11 13:24:18;;;;;;;;;;;31.70;78.40;;;;;;5085420;28;20046;-85
2023/06/11 13:26:44;;;;;;;;;;;31.50;76.60;;;;;;5103908;28;20026;-84
2023/06/11 13:29:13;;;;;;;;;;;31.10;73.00;;;;;;5099926;28;20028;-85
2023/06/11 13:31:39;;;;;;;;;;;31.50;79.00;;;;;;5103762;28;19928;-85
2023/06/11 13:34:07;;;;;;;;;;;32.10;79.10;;;;;;5100140;28;20317;-83
2023/06/11 13:36:35;;;;;;;;;;;31.00;75.30;;;;;;5100950;28;19928;-84
2023/06/11 13:39:01;;;;;;;;;;;30.70;78.00;;;;;;5100009;28;19928;-84
2023/06/11 13:41:27;;;;;;;;;;;30.30;77.00;;;;;;5099403;28;20301;-87
2023/06/11 13:43:53;;;;;;;;;;;30.10;78.40;;;;;;5083872;28;19931;-82
2023/06/11 13:46:19;;;;;;;;;;;29.10;77.00;;;;;;5103244;28;20016;-84
2023/06/11 13:48:45;;;;;;;;;;;29.60;78.20;;;;;;5099963;28;20018;-87
2023/06/11 13:51:12;;;;;;;;;;;30.40;78.60;;;;;;5098383;28;20714;-84
2023/06/11 13:53:37;;;;;;;;;;;30.60;76.60;;;;;;5098320;28;19951;-83
2023/06/11 13:56:03;;;;;;;;;;;30.50;76.20;;;;;;5101405;28;20373;-85
2023/06/11 13:58:29;;;;;;;;;;;29.40;75.60;;;;;;5099669;28;20009;-85
2023/06/11 14:00:55;;;;;;;;;;;29.70;79.00;;;;;;5083997;28;19923;-87
2023/06/11 14:03:20;;;;;;;;;;;29.90;79.70;;;;;;5098705;28;19935;-84
2023/06/11 14:05:46;;;;;;;;;;;30.30;77.00;;;;;;5103129;28;19942;-83
2023/06/11 14:08:17;;;;;;;;;;;30.10;76.80;;;;;;5101423;28;19968;-86
2023/06/11 14:10:46;;;;;;;;;;;29.50;76.50;;;;;;5098058;28;19932;-83
2023/06/11 14:13:14;;;;;;;;;;;29.50;76.30;;;;;;5098920;28;19928;-83
2023/06/11 14:15:40;;;;;;;;;;;29.20;77.20;;;;;;5102771;28;20007;-83
2023/06/11 14:18:06;;;;;;;;;;;29.60;76.40;;;;;;5098450;28;20023;-85